createdAt,value
2023-05-06T00:02:25.815Z,100799.90
2023-05-06T00:04:53.733Z,100790.99
2023-05-06T00:07:21.922Z,100797.05
2023-05-06T00:09:49.572Z,100797.48
2023-05-06T00:12:17.275Z,100802.36
2023-05-06T00:14:44.898Z,100804.57
2023-05-06T00:17:12.609Z,100811.75
2023-05-06T00:19:40.203Z,100811.59
2023-05-06T00:22:07.836Z,100812.96
2023-05-06T00:24:35.681Z,100815.88
2023-05-06T00:27:03.485Z,100814.09
2023-05-06T00:29:31.113Z,100821.45
2023-05-06T00:31:58.749Z,100821.99
2023-05-06T00:34:26.476Z,100817.99
2023-05-06T00:36:54.156Z,100815.93
2023-05-06T00:39:22.339Z,100821.05
2023-05-06T00:41:50.294Z,100821.03
2023-05-06T00:44:17.960Z,100824.30
2023-05-06T00:46:45.742Z,100827.67
2023-05-06T00:49:13.430Z,100827.96
2023-05-06T00:51:41.162Z,100826.00
2023-05-06T00:54:09.236Z,100823.02
2023-05-06T00:56:37.062Z,100818.33
2023-05-06T00:59:05.468Z,100816.98
2023-05-06T01:01:33.192Z,100815.77
2023-05-06T01:04:01.402Z,100811.52
2023-05-06T01:06:45.122Z,100810.95
2023-05-06T01:09:44.671Z,100814.59
2023-05-06T01:12:21.262Z,100819.30
2023-05-06T01:15:02.024Z,100820.83
2023-05-06T01:17:33.583Z,100823.90
2023-05-06T01:20:04.649Z,100830.02
2023-05-06T01:22:36.379Z,100836.35
2023-05-06T01:25:04.875Z,100840.55
2023-05-06T01:27:32.745Z,100840.19
2023-05-06T01:30:01.307Z,100843.65
2023-05-06T01:32:41.631Z,100838.90
2023-05-06T01:35:18.156Z,100840.10
2023-05-06T01:38:05.986Z,100835.84
2023-05-06T01:40:35.319Z,100840.66
2023-05-06T01:43:06.263Z,100841.17
2023-05-06T01:45:36.754Z,100841.04
2023-05-06T01:48:05.893Z,100840.08
2023-05-06T01:50:34.749Z,100836.91
2023-05-06T01:53:03.349Z,100830.52
2023-05-06T01:55:32.108Z,100828.05
2023-05-06T01:57:59.761Z,100834.30
2023-05-06T02:00:27.506Z,100831.02
2023-05-06T02:02:55.163Z,100833.05
2023-05-06T02:05:23.718Z,100822.30
2023-05-06T02:07:52.583Z,100823.96
2023-05-06T02:10:20.741Z,100826.64
2023-05-06T02:12:54.211Z,100824.63
2023-05-06T02:15:22.251Z,100824.66
2023-05-06T02:17:49.895Z,100826.88
2023-05-06T02:20:17.656Z,100827.05
2023-05-06T02:22:45.347Z,100823.71
2023-05-06T02:25:12.984Z,100827.42
2023-05-06T02:27:40.605Z,100822.41
2023-05-06T02:30:08.787Z,100827.68
2023-05-06T02:32:36.718Z,100829.20
2023-05-06T02:35:04.985Z,100824.59
2023-05-06T02:37:33.058Z,100825.75
2023-05-06T02:40:02.567Z,100824.54
2023-05-06T02:42:35.271Z,100826.77
2023-05-06T02:45:04.688Z,100825.46
2023-05-06T02:47:33.371Z,100830.59
2023-05-06T02:50:01.181Z,100826.70
2023-05-06T02:52:28.883Z,100833.19
2023-05-06T02:54:56.504Z,100834.98
2023-05-06T02:57:24.277Z,100827.58
2023-05-06T02:59:52.271Z,100826.59
2023-05-06T03:02:19.967Z,100825.99
2023-05-06T03:04:48.022Z,100828.39
2023-05-06T03:07:16.008Z,100828.34
2023-05-06T03:09:44.718Z,100824.26
2023-05-06T03:12:12.773Z,100822.19
2023-05-06T03:14:40.596Z,100816.95
2023-05-06T03:17:08.352Z,100814.89
2023-05-06T03:19:36.980Z,100811.77
2023-05-06T03:22:06.367Z,100804.48
2023-05-06T03:24:34.712Z,100803.92
2023-05-06T03:27:03.309Z,100803.00
2023-05-06T03:29:31.019Z,100800.48
2023-05-06T03:32:03.748Z,100800.73
2023-05-06T03:34:32.500Z,100799.38
2023-05-06T03:37:00.544Z,100795.63
2023-05-06T03:39:28.923Z,100800.81
2023-05-06T03:41:57.553Z,100806.98
2023-05-06T03:44:26.148Z,100805.01
2023-05-06T03:46:54.345Z,100806.77
2023-05-06T03:49:22.679Z,100807.80
2023-05-06T03:51:50.963Z,100809.92
2023-05-06T03:54:19.260Z,100818.70
2023-05-06T03:56:47.596Z,100822.27
2023-05-06T03:59:17.572Z,100825.17
2023-05-06T04:01:46.176Z,100824.79
2023-05-06T04:04:14.355Z,100824.89
2023-05-06T04:06:42.286Z,100829.73
2023-05-06T04:09:09.946Z,100826.55
2023-05-06T04:11:39.910Z,100829.00
2023-05-06T04:14:08.055Z,100826.05
2023-05-06T04:16:36.654Z,100821.80
2023-05-06T04:19:06.455Z,100820.52
2023-05-06T04:21:35.639Z,100818.64
2023-05-06T04:24:06.899Z,100824.11
2023-05-06T04:26:37.732Z,100816.95
2023-05-06T04:29:05.706Z,100816.98
2023-05-06T04:31:36.831Z,100815.19
2023-05-06T04:34:06.074Z,100816.94
2023-05-06T04:36:34.323Z,100815.16
2023-05-06T04:39:18.061Z,100816.19
2023-05-06T04:41:46.243Z,100811.70
2023-05-06T04:44:16.674Z,100810.73
2023-05-06T04:46:45.534Z,100811.83
2023-05-06T04:49:13.695Z,100815.33
2023-05-06T04:51:41.778Z,100813.94
2023-05-06T04:54:09.860Z,100814.27
2023-05-06T04:56:38.488Z,100814.16
2023-05-06T04:59:06.538Z,100815.30
2023-05-06T05:01:35.155Z,100812.70
2023-05-06T05:04:02.877Z,100810.90
2023-05-06T05:06:31.803Z,100812.73
2023-05-06T05:08:59.976Z,100811.91
2023-05-06T05:11:28.165Z,100813.73
2023-05-06T05:13:58.365Z,100812.95
2023-05-06T05:16:27.347Z,100811.92
2023-05-06T05:18:56.200Z,100815.55
2023-05-06T05:21:27.697Z,100805.56
2023-05-06T05:23:56.384Z,100807.70
2023-05-06T05:26:24.545Z,100806.25
2023-05-06T05:28:53.149Z,100806.48
2023-05-06T05:31:20.943Z,100801.98
2023-05-06T05:33:49.036Z,100796.92
2023-05-06T05:36:17.856Z,100800.30
2023-05-06T05:38:47.807Z,100797.59
2023-05-06T05:41:17.536Z,100802.77
2023-05-06T05:43:45.773Z,100800.98
2023-05-06T05:46:14.198Z,100795.35
2023-05-06T05:48:43.638Z,100803.60
2023-05-06T05:51:11.517Z,100793.64
2023-05-06T05:53:40.189Z,100791.73
2023-05-06T05:56:07.954Z,100789.44
2023-05-06T05:58:35.800Z,100788.24
2023-05-06T06:01:04.109Z,100786.14
2023-05-06T06:03:32.762Z,100789.56
2023-05-06T06:06:01.198Z,100793.92
2023-05-06T06:08:29.799Z,100794.40
2023-05-06T06:10:58.956Z,100799.13
2023-05-06T06:13:30.819Z,100795.31
2023-05-06T06:16:00.638Z,100791.39
2023-05-06T06:18:28.364Z,100787.25
2023-05-06T06:20:56.082Z,100785.73
2023-05-06T06:23:24.863Z,100782.05
2023-05-06T06:25:52.480Z,100783.69
2023-05-06T06:28:20.135Z,100783.27
2023-05-06T06:30:48.107Z,100790.55
2023-05-06T06:33:15.767Z,100790.03
2023-05-06T06:35:43.745Z,100792.85
2023-05-06T06:38:12.418Z,100789.98
2023-05-06T06:40:40.031Z,100788.58
2023-05-06T06:43:07.692Z,100785.82
2023-05-06T06:46:01.746Z,100781.55
2023-05-06T06:48:29.523Z,100784.05
2023-05-06T06:50:57.226Z,100786.46
2023-05-06T06:53:24.914Z,100783.52
2023-05-06T06:55:52.538Z,100779.27
2023-05-06T06:58:20.136Z,100780.00
2023-05-06T07:00:47.787Z,100780.45
2023-05-06T07:03:19.235Z,100778.90
2023-05-06T07:05:46.929Z,100781.75
2023-05-06T07:08:14.736Z,100782.27
2023-05-06T07:10:42.359Z,100782.32
2023-05-06T07:13:10.462Z,100785.59
2023-05-06T07:15:38.181Z,100786.48
2023-05-06T07:18:06.355Z,100784.02
2023-05-06T07:20:33.996Z,100784.06
2023-05-06T07:23:01.637Z,100783.29
2023-05-06T07:25:31.253Z,100781.45
2023-05-06T07:27:58.994Z,100779.60
2023-05-06T07:30:26.733Z,100782.80
2023-05-06T07:32:54.512Z,100771.92
2023-05-06T07:35:22.150Z,100773.38
2023-05-06T07:37:50.166Z,100774.49
2023-05-06T07:40:17.824Z,100774.46
2023-05-06T07:42:45.622Z,100773.48
2023-05-06T07:45:13.365Z,100769.66
2023-05-06T07:47:41.371Z,100771.97
2023-05-06T07:50:10.453Z,100770.16
2023-05-06T07:52:38.169Z,100767.47
2023-05-06T07:55:09.199Z,100762.45
2023-05-06T07:57:37.256Z,100765.51
2023-05-06T08:00:06.219Z,100768.44
2023-05-06T08:02:44.501Z,100768.56
2023-05-06T08:05:13.567Z,100770.85
2023-05-06T08:07:41.991Z,100767.20
2023-05-06T08:10:10.281Z,100766.08
2023-05-06T08:12:38.221Z,100760.27
2023-05-06T08:15:06.929Z,100764.09
2023-05-06T08:17:34.768Z,100755.33
2023-05-06T08:20:02.513Z,100753.27
2023-05-06T08:22:30.215Z,100750.79
2023-05-06T08:24:58.109Z,100752.08
2023-05-06T08:27:25.716Z,100754.79
2023-05-06T08:29:53.341Z,100753.41
2023-05-06T08:32:21.180Z,100750.02
2023-05-06T08:34:48.818Z,100744.33
2023-05-06T08:37:16.623Z,100743.22
2023-05-06T08:39:45.555Z,100742.40
2023-05-06T08:42:13.492Z,100735.25
2023-05-06T08:44:43.739Z,100731.54
2023-05-06T08:47:11.854Z,100732.79
2023-05-06T08:49:39.650Z,100740.77
2023-05-06T08:52:08.535Z,100736.04
2023-05-06T08:54:37.010Z,100736.90
2023-05-06T08:57:10.311Z,100730.97
2023-05-06T08:59:41.474Z,100732.47
2023-05-06T09:02:11.116Z,100730.15
2023-05-06T09:04:39.667Z,100721.73
2023-05-06T09:07:08.141Z,100718.36
2023-05-06T09:09:35.808Z,100722.14
2023-05-06T09:12:04.183Z,100726.70
2023-05-06T09:14:31.769Z,100733.60
2023-05-06T09:16:59.444Z,100730.98
2023-05-06T09:19:27.226Z,100721.38
2023-05-06T09:21:54.884Z,100724.15
2023-05-06T09:24:23.695Z,100720.56
2023-05-06T09:26:55.352Z,100722.20
2023-05-06T09:29:23.076Z,100719.63
2023-05-06T09:31:53.665Z,100720.57
2023-05-06T09:34:22.572Z,100719.11
2023-05-06T09:36:52.499Z,100715.17
2023-05-06T09:39:25.680Z,100715.95
2023-05-06T09:41:54.494Z,100709.53
2023-05-06T09:44:23.987Z,100706.52
2023-05-06T09:46:52.141Z,100705.91
2023-05-06T09:49:20.433Z,100711.33
2023-05-06T09:51:51.488Z,100710.12
2023-05-06T09:54:19.546Z,100705.84
2023-05-06T09:56:48.736Z,100706.48
2023-05-06T09:59:18.458Z,100702.52
2023-05-06T10:01:46.962Z,100703.20
2023-05-06T10:04:17.370Z,100710.67
2023-05-06T10:06:48.925Z,100714.33
2023-05-06T10:09:18.149Z,100709.53
2023-05-06T10:11:47.392Z,100707.38
2023-05-06T10:14:15.598Z,100711.36
2023-05-06T10:16:43.434Z,100705.35
2023-05-06T10:19:12.138Z,100704.70
2023-05-06T10:21:43.279Z,100707.15
2023-05-06T10:24:13.423Z,100700.30
2023-05-06T10:26:45.178Z,100701.13
2023-05-06T10:29:13.503Z,100700.30
2023-05-06T10:31:57.845Z,100699.63
2023-05-06T10:34:27.005Z,100698.45
2023-05-06T10:36:57.660Z,100696.83
2023-05-06T10:39:26.644Z,100700.25
2023-05-06T10:41:55.016Z,100695.19
2023-05-06T10:44:53.484Z,100697.93
2023-05-06T10:47:22.134Z,100697.27
2023-05-06T10:50:21.918Z,100694.09
2023-05-06T10:52:55.426Z,100691.73
2023-05-06T10:55:38.871Z,100691.10
2023-05-06T10:58:18.804Z,100690.30
2023-05-06T11:00:57.981Z,100690.34
2023-05-06T11:03:25.898Z,100693.82
2023-05-06T11:05:53.749Z,100691.87
2023-05-06T11:08:23.606Z,100693.41
2023-05-06T11:10:52.374Z,100691.35
2023-05-06T11:13:20.119Z,100697.11
2023-05-06T11:15:51.790Z,100695.98
2023-05-06T11:18:30.464Z,100698.64
2023-05-06T11:21:02.679Z,100699.98
2023-05-06T11:24:00.469Z,100695.27
2023-05-06T11:26:28.076Z,100692.82
2023-05-06T11:28:55.878Z,100696.84
2023-05-06T11:31:24.153Z,100701.99
2023-05-06T11:33:54.283Z,100701.38
2023-05-06T11:36:21.904Z,100698.91
2023-05-06T11:38:56.274Z,100704.74
2023-05-06T11:41:23.891Z,100703.73
2023-05-06T11:43:53.243Z,100701.98
2023-05-06T11:46:23.342Z,100705.73
2023-05-06T11:48:51.242Z,100705.91
2023-05-06T11:51:23.017Z,100704.64
2023-05-06T11:53:52.377Z,100710.30
2023-05-06T11:56:19.968Z,100708.41
2023-05-06T11:58:47.585Z,100708.19
2023-05-06T12:01:15.180Z,100711.48
2023-05-06T12:03:42.914Z,100715.00
2023-05-06T12:06:12.630Z,100718.64
2023-05-06T12:08:40.667Z,100718.52
2023-05-06T12:11:09.430Z,100722.18
2023-05-06T12:13:37.821Z,100717.61
2023-05-06T12:16:07.712Z,100724.30
2023-05-06T12:18:36.054Z,100724.96
2023-05-06T12:21:04.360Z,100728.14
2023-05-06T12:23:32.214Z,100731.81
2023-05-06T12:26:01.316Z,100733.45
2023-05-06T12:28:29.777Z,100730.65
2023-05-06T12:30:57.627Z,100736.82
2023-05-06T12:33:25.413Z,100734.61
2023-05-06T12:35:54.738Z,100734.52
2023-05-06T12:38:22.339Z,100730.91
2023-05-06T12:40:55.468Z,100733.66
2023-05-06T12:43:30.938Z,100734.29
2023-05-06T12:46:14.883Z,100732.88
2023-05-06T12:49:00.459Z,100735.01
2023-05-06T12:51:30.665Z,100729.79
2023-05-06T12:53:58.312Z,100724.14
2023-05-06T12:56:26.039Z,100720.34
2023-05-06T12:58:58.850Z,100722.59
2023-05-06T13:01:26.847Z,100722.67
2023-05-06T13:03:58.374Z,100722.13
2023-05-06T13:06:26.109Z,100720.52
2023-05-06T13:08:53.877Z,100717.91
2023-05-06T13:11:22.134Z,100718.52
2023-05-06T13:13:49.770Z,100722.08
2023-05-06T13:16:17.515Z,100716.58
2023-05-06T13:18:45.640Z,100719.23
2023-05-06T13:21:14.027Z,100716.27
2023-05-06T13:23:47.782Z,100719.30
2023-05-06T13:26:15.839Z,100721.83
2023-05-06T13:28:43.594Z,100722.30
2023-05-06T13:31:11.223Z,100728.86
2023-05-06T13:33:38.967Z,100728.67
2023-05-06T13:36:06.783Z,100729.59
2023-05-06T13:38:34.375Z,100727.55
2023-05-06T13:41:01.988Z,100723.15
2023-05-06T13:43:29.625Z,100720.30
2023-05-06T13:45:57.295Z,100715.54
2023-05-06T13:48:24.958Z,100711.16
2023-05-06T13:50:52.647Z,100708.40
2023-05-06T13:53:20.483Z,100708.55
2023-05-06T13:55:48.364Z,100709.35
2023-05-06T13:58:17.133Z,100709.52
2023-05-06T14:00:44.882Z,100707.83
2023-05-06T14:03:12.575Z,100704.67
2023-05-06T14:05:40.318Z,100702.88
2023-05-06T14:08:08.293Z,100705.30
2023-05-06T14:10:35.897Z,100704.77
2023-05-06T14:13:06.786Z,100705.77
2023-05-06T14:15:34.980Z,100702.96
2023-05-06T14:18:03.966Z,100701.52
2023-05-06T14:20:31.761Z,100703.36
2023-05-06T14:22:59.385Z,100700.88
2023-05-06T14:25:27.942Z,100699.61
2023-05-06T14:27:55.985Z,100701.30
2023-05-06T14:30:25.666Z,100701.09
2023-05-06T14:32:53.456Z,100698.39
2023-05-06T14:35:21.292Z,100698.15
2023-05-06T14:37:48.964Z,100696.54
2023-05-06T14:40:17.155Z,100694.10
2023-05-06T14:42:45.908Z,100695.52
2023-05-06T14:45:13.842Z,100697.55
2023-05-06T14:47:42.759Z,100697.42
2023-05-06T14:50:12.340Z,100698.98
2023-05-06T14:52:41.206Z,100694.96
2023-05-06T14:55:10.653Z,100690.84
2023-05-06T14:57:38.699Z,100692.71
2023-05-06T15:00:14.673Z,100698.04
2023-05-06T15:02:42.492Z,100698.45
2023-05-06T15:05:10.818Z,100700.11
2023-05-06T15:07:39.267Z,100698.36
2023-05-06T15:10:07.721Z,100697.29
2023-05-06T15:12:36.230Z,100707.44
2023-05-06T15:15:05.126Z,100703.91
2023-05-06T15:17:33.491Z,100709.04
2023-05-06T15:20:01.209Z,100709.46
2023-05-06T15:22:28.941Z,100711.38
2023-05-06T15:24:56.624Z,100705.40
2023-05-06T15:27:24.205Z,100705.31
2023-05-06T15:29:51.798Z,100707.48
2023-05-06T15:32:19.461Z,100707.67
2023-05-06T15:34:47.086Z,100707.55
2023-05-06T15:37:19.133Z,100704.48
2023-05-06T15:39:47.776Z,100704.08
2023-05-06T15:42:18.624Z,100704.52
2023-05-06T15:44:48.271Z,100702.02
2023-05-06T15:47:16.207Z,100703.45
2023-05-06T15:52:14.424Z,100707.73
2023-05-06T15:54:42.118Z,100702.98
2023-05-06T15:57:09.808Z,100703.59
2023-05-06T15:59:37.499Z,100703.04
2023-05-06T16:04:36.972Z,100703.66
2023-05-06T16:07:04.977Z,100705.77
2023-05-06T16:09:32.627Z,100707.50
2023-05-06T16:12:00.307Z,100705.61
2023-05-06T16:14:27.892Z,100701.67
2023-05-06T16:16:55.828Z,100703.35
2023-05-06T16:19:23.475Z,100698.05
2023-05-06T16:21:51.269Z,100697.23
2023-05-06T16:24:19.201Z,100694.38
2023-05-06T16:26:47.083Z,100695.98
2023-05-06T16:29:18.850Z,100701.55
2023-05-06T16:31:47.299Z,100694.59
2023-05-06T16:34:15.325Z,100699.16
2023-05-06T16:36:43.581Z,100698.16
2023-05-06T16:39:11.174Z,100697.96
2023-05-06T16:41:38.825Z,100701.16
2023-05-06T16:44:06.480Z,100699.67
2023-05-06T16:46:34.208Z,100700.58
2023-05-06T16:49:03.765Z,100693.55
2023-05-06T16:51:31.919Z,100694.41
2023-05-06T16:53:59.516Z,100692.95
2023-05-06T16:56:36.749Z,100690.15
2023-05-06T16:59:08.199Z,100691.42
2023-05-06T17:01:35.837Z,100688.59
2023-05-06T17:04:03.519Z,100691.24
2023-05-06T17:06:32.855Z,100690.94
2023-05-06T17:09:00.710Z,100690.09
2023-05-06T17:11:28.334Z,100696.66
2023-05-06T17:13:55.993Z,100692.17
2023-05-06T17:16:23.681Z,100692.18
2023-05-06T17:18:51.410Z,100698.76
2023-05-06T17:21:20.546Z,100697.86
2023-05-06T17:23:48.240Z,100697.35
2023-05-06T17:26:17.716Z,100693.90
2023-05-06T17:28:45.311Z,100693.30
2023-05-06T17:31:15.565Z,100691.25
2023-05-06T17:33:47.063Z,100697.20
2023-05-06T17:36:16.556Z,100697.78
2023-05-06T17:38:44.196Z,100697.46
2023-05-06T17:41:12.124Z,100692.48
2023-05-06T17:43:39.760Z,100692.61
2023-05-06T17:46:09.323Z,100694.64
2023-05-06T17:48:37.182Z,100692.44
2023-05-06T17:51:04.897Z,100695.71
2023-05-06T17:53:34.000Z,100694.48
2023-05-06T17:56:01.667Z,100697.46
2023-05-06T17:58:29.266Z,100698.48
2023-05-06T18:00:57.525Z,100697.89
2023-05-06T18:03:25.310Z,100701.25
2023-05-06T18:05:53.052Z,100704.65
2023-05-06T18:08:20.697Z,100705.09
2023-05-06T18:10:48.338Z,100704.52
2023-05-06T18:13:16.366Z,100712.20
2023-05-06T18:15:44.022Z,100715.25
2023-05-06T18:18:11.804Z,100716.97
2023-05-06T18:20:40.550Z,100717.21
2023-05-06T18:23:08.198Z,100716.73
2023-05-06T18:25:35.854Z,100724.57
2023-05-06T18:28:05.382Z,100725.17
2023-05-06T18:30:32.996Z,100721.17
2023-05-06T18:33:00.855Z,100725.38
2023-05-06T18:35:28.508Z,100728.02
2023-05-06T18:37:56.116Z,100725.55
2023-05-06T18:40:23.812Z,100728.08
2023-05-06T18:42:51.545Z,100725.56
2023-05-06T18:45:19.259Z,100730.70
2023-05-06T18:47:46.898Z,100730.71
2023-05-06T18:50:14.599Z,100729.73
2023-05-06T18:52:42.639Z,100729.42
2023-05-06T18:55:10.954Z,100729.77
2023-05-06T18:57:39.503Z,100729.95
2023-05-06T19:00:07.995Z,100732.01
2023-05-06T19:02:35.648Z,100729.09
2023-05-06T19:05:03.432Z,100732.65
2023-05-06T19:07:31.043Z,100733.39
2023-05-06T19:09:58.640Z,100734.56
2023-05-06T19:12:26.275Z,100734.48
2023-05-06T19:14:53.888Z,100738.98
2023-05-06T19:17:21.563Z,100739.81
2023-05-06T19:19:49.304Z,100742.96
2023-05-06T19:22:16.993Z,100743.30
2023-05-06T19:24:44.841Z,100744.73
2023-05-06T19:27:12.450Z,100748.04
2023-05-06T19:29:40.056Z,100753.65
2023-05-06T19:32:08.515Z,100757.36
2023-05-06T19:34:36.615Z,100762.38
2023-05-06T19:37:04.238Z,100762.23
2023-05-06T19:39:31.851Z,100764.29
2023-05-06T19:41:59.460Z,100762.31
2023-05-06T19:44:27.049Z,100763.02
2023-05-06T19:46:54.640Z,100762.52
2023-05-06T19:49:22.483Z,100754.34
2023-05-06T19:51:50.080Z,100756.17
2023-05-06T19:54:19.228Z,100754.29
2023-05-06T19:56:46.852Z,100758.77
2023-05-06T19:59:14.621Z,100761.73
2023-05-06T20:01:42.315Z,100757.04
2023-05-06T20:04:10.396Z,100754.78
2023-05-06T20:06:38.081Z,100750.41
2023-05-06T20:09:05.781Z,100749.55
2023-05-06T20:11:33.444Z,100752.55
2023-05-06T20:14:01.294Z,100750.94
2023-05-06T20:16:28.910Z,100753.92
2023-05-06T20:18:57.083Z,100754.58
2023-05-06T20:21:24.685Z,100758.90
2023-05-06T20:23:52.316Z,100757.30
2023-05-06T20:26:19.945Z,100751.58
2023-05-06T20:28:47.953Z,100756.30
2023-05-06T20:31:15.765Z,100760.24
2023-05-06T20:33:43.470Z,100763.03
2023-05-06T20:36:11.144Z,100763.80
2023-05-06T20:38:38.757Z,100762.45
2023-05-06T20:41:06.350Z,100763.09
2023-05-06T20:43:35.184Z,100763.32
2023-05-06T20:46:03.099Z,100764.46
2023-05-06T20:48:31.915Z,100764.20
2023-05-06T20:50:59.573Z,100765.52
2023-05-06T20:53:27.252Z,100770.17
2023-05-06T20:55:55.212Z,100770.41
2023-05-06T20:58:22.924Z,100773.64
2023-05-06T21:00:50.726Z,100774.56
2023-05-06T21:03:18.488Z,100775.80
2023-05-06T21:05:46.196Z,100775.68
2023-05-06T21:08:13.953Z,100771.99
2023-05-06T21:10:41.615Z,100771.63
2023-05-06T21:13:09.302Z,100771.83
2023-05-06T21:15:37.924Z,100775.75
2023-05-06T21:18:06.024Z,100776.39
2023-05-06T21:20:33.838Z,100777.45
2023-05-06T21:23:03.411Z,100778.95
2023-05-06T21:25:31.051Z,100775.56
2023-05-06T21:28:03.124Z,100776.14
2023-05-06T21:30:31.215Z,100776.11
2023-05-06T21:32:58.890Z,100777.59
2023-05-06T21:35:26.750Z,100775.97
2023-05-06T21:37:54.335Z,100774.21
2023-05-06T21:40:22.368Z,100774.46
2023-05-06T21:42:51.142Z,100769.95
2023-05-06T21:45:21.697Z,100767.42
2023-05-06T21:47:49.414Z,100769.95
2023-05-06T21:50:17.212Z,100768.55
2023-05-06T21:52:44.852Z,100767.68
2023-05-06T21:55:12.749Z,100770.15
2023-05-06T21:57:40.650Z,100766.52
2023-05-06T22:00:12.166Z,100770.91
2023-05-06T22:02:40.770Z,100776.64
2023-05-06T22:05:09.217Z,100789.61
2023-05-06T22:07:37.470Z,100793.84
2023-05-06T22:10:06.078Z,100800.65
2023-05-06T22:12:35.225Z,100807.16
2023-05-06T22:15:03.458Z,100808.83
2023-05-06T22:17:32.751Z,100809.45
2023-05-06T22:20:04.184Z,100813.20
2023-05-06T22:22:32.290Z,100811.41
2023-05-06T22:25:00.372Z,100815.60
2023-05-06T22:27:27.983Z,100815.29
2023-05-06T22:29:55.902Z,100819.58
2023-05-06T22:32:23.541Z,100819.95
2023-05-06T22:34:51.162Z,100824.85
2023-05-06T22:37:19.604Z,100824.39
2023-05-06T22:39:47.474Z,100822.13
2023-05-06T22:42:15.852Z,100821.96
2023-05-06T22:44:43.521Z,100818.61
2023-05-06T22:47:11.502Z,100821.98
2023-05-06T22:49:39.109Z,100826.92
2023-05-06T22:52:06.955Z,100826.27
2023-05-06T22:54:34.579Z,100828.87
2023-05-06T22:57:02.251Z,100829.83
2023-05-06T22:59:30.394Z,100826.48
2023-05-06T23:01:58.048Z,100829.04
2023-05-06T23:04:25.654Z,100833.44
2023-05-06T23:06:53.338Z,100835.53
2023-05-06T23:09:20.968Z,100833.14
2023-05-06T23:11:48.707Z,100833.77
2023-05-06T23:14:17.234Z,100830.63
2023-05-06T23:16:44.988Z,100831.40
2023-05-06T23:19:12.760Z,100835.04
2023-05-06T23:21:41.476Z,100834.74
2023-05-06T23:24:09.724Z,100839.52
2023-05-06T23:26:37.359Z,100840.29
2023-05-06T23:29:05.117Z,100846.81
2023-05-06T23:31:32.800Z,100844.95
2023-05-06T23:34:00.758Z,100844.34
2023-05-06T23:36:28.450Z,100847.16
2023-05-06T23:38:56.406Z,100846.02
2023-05-06T23:41:24.360Z,100844.55
2023-05-06T23:43:51.938Z,100848.67
2023-05-06T23:46:19.629Z,100853.80
2023-05-06T23:48:47.293Z,100854.06
2023-05-06T23:51:14.923Z,100855.02
2023-05-06T23:53:42.554Z,100853.36
2023-05-06T23:56:10.230Z,100857.13
2023-05-06T23:58:37.820Z,100858.73
